sensor_id;sensor_type;location;lat;lon;timestamp;P1;durP1;ratioP1;P2;durP2;ratioP2
2225;SDS011;1119;48.288;8.726;2023-01-28T00:01:27;13.82;;;12.52;;
2225;SDS011;1119;48.288;8.726;2023-01-28T00:03:54;13.25;;;12.60;;
2225;SDS011;1119;48.288;8.726;2023-01-28T00:06:22;13.38;;;12.48;;
2225;SDS011;1119;48.288;8.726;2023-01-28T00:08:49;11.77;;;11.10;;
2225;SDS011;1119;48.288;8.726;2023-01-28T00:11:16;16.30;;;14.95;;
2225;SDS011;1119;48.288;8.726;2023-01-28T00:13:43;14.43;;;13.20;;
2225;SDS011;1119;48.288;8.726;2023-01-28T00:16:12;12.10;;;11.25;;
2225;SDS011;1119;48.288;8.726;2023-01-28T00:18:39;18.20;;;13.27;;
2225;SDS011;1119;48.288;8.726;2023-01-28T00:21:07;14.82;;;13.40;;
2225;SDS011;1119;48.288;8.726;2023-01-28T00:23:38;9.77;;;9.18;;
2225;SDS011;1119;48.288;8.726;2023-01-28T00:26:09;13.55;;;11.80;;
2225;SDS011;1119;48.288;8.726;2023-01-28T00:28:42;15.90;;;14.35;;
2225;SDS011;1119;48.288;8.726;2023-01-28T00:31:11;13.63;;;12.73;;
2225;SDS011;1119;48.288;8.726;2023-01-28T00:33:42;12.75;;;11.88;;
2225;SDS011;1119;48.288;8.726;2023-01-28T00:36:10;15.75;;;14.73;;
2225;SDS011;1119;48.288;8.726;2023-01-28T00:38:40;11.48;;;10.68;;
2225;SDS011;1119;48.288;8.726;2023-01-28T00:41:08;10.20;;;8.48;;
2225;SDS011;1119;48.288;8.726;2023-01-28T00:43:37;10.30;;;9.55;;
2225;SDS011;1119;48.288;8.726;2023-01-28T00:46:08;9.27;;;8.77;;
2225;SDS011;1119;48.288;8.726;2023-01-28T00:48:38;16.55;;;14.85;;
2225;SDS011;1119;48.288;8.726;2023-01-28T00:51:06;10.77;;;9.98;;
2225;SDS011;1119;48.288;8.726;2023-01-28T00:53:35;12.32;;;11.18;;
2225;SDS011;1119;48.288;8.726;2023-01-28T00:56:04;12.40;;;11.43;;
2225;SDS011;1119;48.288;8.726;2023-01-28T00:58:34;17.58;;;15.90;;
2225;SDS011;1119;48.288;8.726;2023-01-28T01:01:05;11.43;;;10.88;;
2225;SDS011;1119;48.288;8.726;2023-01-28T01:03:35;10.70;;;9.98;;
2225;SDS011;1119;48.288;8.726;2023-01-28T01:06:04;10.75;;;9.77;;
2225;SDS011;1119;48.288;8.726;2023-01-28T01:08:32;12.18;;;11.23;;
2225;SDS011;1119;48.288;8.726;2023-01-28T01:11:00;13.38;;;12.15;;
2225;SDS011;1119;48.288;8.726;2023-01-28T01:13:30;14.98;;;13.90;;
2225;SDS011;1119;48.288;8.726;2023-01-28T01:16:00;13.57;;;12.63;;
2225;SDS011;1119;48.288;8.726;2023-01-28T01:18:28;13.80;;;12.75;;
2225;SDS011;1119;48.288;8.726;2023-01-28T01:20:56;16.30;;;15.07;;
2225;SDS011;1119;48.288;8.726;2023-01-28T01:23:26;15.68;;;14.20;;
2225;SDS011;1119;48.288;8.726;2023-01-28T01:25:55;12.27;;;11.07;;
2225;SDS011;1119;48.288;8.726;2023-01-28T01:28:23;17.33;;;15.93;;
2225;SDS011;1119;48.288;8.726;2023-01-28T01:30:57;22.67;;;16.02;;
2225;SDS011;1119;48.288;8.726;2023-01-28T01:33:27;13.13;;;12.23;;
2225;SDS011;1119;48.288;8.726;2023-01-28T01:35:54;12.05;;;11.07;;
2225;SDS011;1119;48.288;8.726;2023-01-28T01:38:22;11.90;;;11.13;;
2225;SDS011;1119;48.288;8.726;2023-01-28T01:40:51;9.88;;;9.18;;
2225;SDS011;1119;48.288;8.726;2023-01-28T01:43:23;13.63;;;10.57;;
2225;SDS011;1119;48.288;8.726;2023-01-28T01:45:52;16.30;;;14.95;;
2225;SDS011;1119;48.288;8.726;2023-01-28T01:48:24;10.10;;;9.48;;
2225;SDS011;1119;48.288;8.726;2023-01-28T01:50:59;9.43;;;8.93;;
2225;SDS011;1119;48.288;8.726;2023-01-28T01:53:29;12.70;;;11.52;;
2225;SDS011;1119;48.288;8.726;2023-01-28T01:56:00;11.05;;;10.32;;
2225;SDS011;1119;48.288;8.726;2023-01-28T01:58:32;12.88;;;11.77;;
2225;SDS011;1119;48.288;8.726;2023-01-28T02:01:04;8.98;;;8.48;;
2225;SDS011;1119;48.288;8.726;2023-01-28T02:03:32;8.35;;;8.00;;
2225;SDS011;1119;48.288;8.726;2023-01-28T02:06:07;11.57;;;10.80;;
2225;SDS011;1119;48.288;8.726;2023-01-28T02:08:34;11.68;;;10.90;;
2225;SDS011;1119;48.288;8.726;2023-01-28T02:11:06;11.80;;;10.93;;
2225;SDS011;1119;48.288;8.726;2023-01-28T02:13:37;10.65;;;9.90;;
2225;SDS011;1119;48.288;8.726;2023-01-28T02:16:09;10.73;;;10.10;;
2225;SDS011;1119;48.288;8.726;2023-01-28T02:18:37;8.10;;;7.47;;
2225;SDS011;1119;48.288;8.726;2023-01-28T02:21:14;13.05;;;11.85;;
2225;SDS011;1119;48.288;8.726;2023-01-28T02:24:06;12.00;;;11.00;;
2225;SDS011;1119;48.288;8.726;2023-01-28T02:26:56;13.27;;;12.10;;
2225;SDS011;1119;48.288;8.726;2023-01-28T02:29:46;10.18;;;9.38;;
2225;SDS011;1119;48.288;8.726;2023-01-28T02:32:22;9.82;;;9.10;;
2225;SDS011;1119;48.288;8.726;2023-01-28T02:34:55;10.63;;;9.93;;
2225;SDS011;1119;48.288;8.726;2023-01-28T02:37:33;10.82;;;10.20;;
2225;SDS011;1119;48.288;8.726;2023-01-28T02:40:05;12.75;;;11.80;;
2225;SDS011;1119;48.288;8.726;2023-01-28T02:42:38;9.52;;;8.93;;
2225;SDS011;1119;48.288;8.726;2023-01-28T02:45:15;7.95;;;7.45;;
2225;SDS011;1119;48.288;8.726;2023-01-28T02:47:47;12.23;;;10.95;;
2225;SDS011;1119;48.288;8.726;2023-01-28T02:50:23;15.18;;;12.48;;
2225;SDS011;1119;48.288;8.726;2023-01-28T02:53:03;7.78;;;7.47;;
2225;SDS011;1119;48.288;8.726;2023-01-28T02:56:01;11.82;;;11.05;;
2225;SDS011;1119;48.288;8.726;2023-01-28T02:58:41;12.68;;;11.88;;
2225;SDS011;1119;48.288;8.726;2023-01-28T03:01:21;10.85;;;10.35;;
2225;SDS011;1119;48.288;8.726;2023-01-28T03:03:56;12.68;;;11.93;;
2225;SDS011;1119;48.288;8.726;2023-01-28T03:06:27;13.02;;;12.00;;
2225;SDS011;1119;48.288;8.726;2023-01-28T03:09:01;11.05;;;10.38;;
2225;SDS011;1119;48.288;8.726;2023-01-28T03:11:50;11.15;;;10.50;;
2225;SDS011;1119;48.288;8.726;2023-01-28T03:14:38;10.55;;;9.93;;
2225;SDS011;1119;48.288;8.726;2023-01-28T03:17:26;13.55;;;12.68;;
2225;SDS011;1119;48.288;8.726;2023-01-28T03:20:21;12.75;;;11.82;;
2225;SDS011;1119;48.288;8.726;2023-01-28T03:23:09;11.93;;;11.05;;
2225;SDS011;1119;48.288;8.726;2023-01-28T03:25:59;11.90;;;11.18;;
2225;SDS011;1119;48.288;8.726;2023-01-28T03:28:46;15.38;;;14.38;;
2225;SDS011;1119;48.288;8.726;2023-01-28T03:31:32;17.23;;;14.68;;
2225;SDS011;1119;48.288;8.726;2023-01-28T03:34:21;17.17;;;15.55;;
2225;SDS011;1119;48.288;8.726;2023-01-28T03:37:06;12.95;;;11.45;;
2225;SDS011;1119;48.288;8.726;2023-01-28T03:39:45;14.07;;;13.30;;
2225;SDS011;1119;48.288;8.726;2023-01-28T03:42:13;12.80;;;11.93;;
2225;SDS011;1119;48.288;8.726;2023-01-28T03:45:03;13.98;;;13.02;;
2225;SDS011;1119;48.288;8.726;2023-01-28T03:47:32;15.10;;;13.98;;
2225;SDS011;1119;48.288;8.726;2023-01-28T03:50:03;16.08;;;14.52;;
2225;SDS011;1119;48.288;8.726;2023-01-28T03:52:38;13.70;;;12.80;;
2225;SDS011;1119;48.288;8.726;2023-01-28T03:55:27;13.57;;;12.88;;
2225;SDS011;1119;48.288;8.726;2023-01-28T03:57:55;13.95;;;13.25;;
2225;SDS011;1119;48.288;8.726;2023-01-28T04:00:24;12.80;;;12.00;;
2225;SDS011;1119;48.288;8.726;2023-01-28T04:02:53;13.68;;;12.75;;
2225;SDS011;1119;48.288;8.726;2023-01-28T04:05:22;19.60;;;16.95;;
2225;SDS011;1119;48.288;8.726;2023-01-28T04:07:53;13.30;;;12.57;;
2225;SDS011;1119;48.288;8.726;2023-01-28T04:10:29;14.32;;;13.20;;
2225;SDS011;1119;48.288;8.726;2023-01-28T04:13:04;14.73;;;13.60;;
2225;SDS011;1119;48.288;8.726;2023-01-28T04:15:32;12.23;;;11.23;;
2225;SDS011;1119;48.288;8.726;2023-01-28T04:18:00;11.77;;;10.95;;
2225;SDS011;1119;48.288;8.726;2023-01-28T04:20:30;9.85;;;9.32;;
2225;SDS011;1119;48.288;8.726;2023-01-28T04:22:59;13.88;;;12.70;;
2225;SDS011;1119;48.288;8.726;2023-01-28T04:25:27;10.15;;;9.43;;
2225;SDS011;1119;48.288;8.726;2023-01-28T04:27:56;10.27;;;9.65;;
2225;SDS011;1119;48.288;8.726;2023-01-28T04:30:27;11.18;;;10.52;;
2225;SDS011;1119;48.288;8.726;2023-01-28T04:33:09;8.55;;;8.25;;
2225;SDS011;1119;48.288;8.726;2023-01-28T04:36:00;11.27;;;10.50;;
2225;SDS011;1119;48.288;8.726;2023-01-28T04:38:38;11.85;;;10.73;;
2225;SDS011;1119;48.288;8.726;2023-01-28T04:41:38;12.45;;;11.57;;
2225;SDS011;1119;48.288;8.726;2023-01-28T04:44:13;10.75;;;10.25;;
2225;SDS011;1119;48.288;8.726;2023-01-28T04:47:00;11.13;;;10.13;;
2225;SDS011;1119;48.288;8.726;2023-01-28T04:49:49;14.10;;;13.20;;
2225;SDS011;1119;48.288;8.726;2023-01-28T04:52:47;14.30;;;13.10;;
2225;SDS011;1119;48.288;8.726;2023-01-28T04:55:21;11.43;;;10.57;;
2225;SDS011;1119;48.288;8.726;2023-01-28T04:57:48;9.60;;;9.15;;
2225;SDS011;1119;48.288;8.726;2023-01-28T05:00:17;10.65;;;9.85;;
2225;SDS011;1119;48.288;8.726;2023-01-28T05:02:45;10.85;;;10.10;;
2225;SDS011;1119;48.288;8.726;2023-01-28T05:05:12;9.23;;;8.77;;
2225;SDS011;1119;48.288;8.726;2023-01-28T05:07:56;12.32;;;11.45;;
2225;SDS011;1119;48.288;8.726;2023-01-28T05:10:25;10.82;;;10.27;;
2225;SDS011;1119;48.288;8.726;2023-01-28T05:12:53;10.68;;;9.98;;
2225;SDS011;1119;48.288;8.726;2023-01-28T05:15:21;11.90;;;11.10;;
2225;SDS011;1119;48.288;8.726;2023-01-28T05:17:52;17.25;;;13.95;;
2225;SDS011;1119;48.288;8.726;2023-01-28T05:20:21;11.35;;;10.70;;
2225;SDS011;1119;48.288;8.726;2023-01-28T05:22:49;12.10;;;11.25;;
2225;SDS011;1119;48.288;8.726;2023-01-28T05:25:21;13.35;;;12.45;;
2225;SDS011;1119;48.288;8.726;2023-01-28T05:27:49;12.45;;;11.85;;
2225;SDS011;1119;48.288;8.726;2023-01-28T05:30:18;12.75;;;11.85;;
2225;SDS011;1119;48.288;8.726;2023-01-28T05:32:46;13.18;;;12.00;;
2225;SDS011;1119;48.288;8.726;2023-01-28T05:35:16;10.40;;;9.68;;
2225;SDS011;1119;48.288;8.726;2023-01-28T05:37:43;13.10;;;12.23;;
2225;SDS011;1119;48.288;8.726;2023-01-28T05:40:11;11.82;;;10.98;;
2225;SDS011;1119;48.288;8.726;2023-01-28T05:42:40;10.23;;;9.60;;
2225;SDS011;1119;48.288;8.726;2023-01-28T05:45:28;11.05;;;10.45;;
2225;SDS011;1119;48.288;8.726;2023-01-28T05:51:14;9.65;;;9.05;;
2225;SDS011;1119;48.288;8.726;2023-01-28T05:53:44;12.00;;;10.88;;
2225;SDS011;1119;48.288;8.726;2023-01-28T05:56:11;10.80;;;10.30;;
2225;SDS011;1119;48.288;8.726;2023-01-28T05:58:41;9.27;;;8.80;;
2225;SDS011;1119;48.288;8.726;2023-01-28T06:01:09;13.38;;;12.30;;
2225;SDS011;1119;48.288;8.726;2023-01-28T06:03:41;11.35;;;10.38;;
2225;SDS011;1119;48.288;8.726;2023-01-28T06:06:08;12.43;;;11.27;;
2225;SDS011;1119;48.288;8.726;2023-01-28T06:08:36;12.48;;;11.80;;
2225;SDS011;1119;48.288;8.726;2023-01-28T06:11:03;11.50;;;10.70;;
2225;SDS011;1119;48.288;8.726;2023-01-28T06:13:32;12.45;;;11.35;;
2225;SDS011;1119;48.288;8.726;2023-01-28T06:16:14;15.50;;;14.52;;
2225;SDS011;1119;48.288;8.726;2023-01-28T06:18:52;9.82;;;9.32;;
2225;SDS011;1119;48.288;8.726;2023-01-28T06:21:19;10.15;;;9.38;;
2225;SDS011;1119;48.288;8.726;2023-01-28T06:23:47;12.80;;;11.85;;
2225;SDS011;1119;48.288;8.726;2023-01-28T06:26:14;10.35;;;9.80;;
2225;SDS011;1119;48.288;8.726;2023-01-28T06:28:44;12.32;;;11.27;;
2225;SDS011;1119;48.288;8.726;2023-01-28T06:31:11;15.68;;;10.40;;
2225;SDS011;1119;48.288;8.726;2023-01-28T06:33:40;10.45;;;9.30;;
2225;SDS011;1119;48.288;8.726;2023-01-28T06:36:08;12.27;;;11.57;;
2225;SDS011;1119;48.288;8.726;2023-01-28T06:38:35;12.93;;;12.13;;
2225;SDS011;1119;48.288;8.726;2023-01-28T06:41:03;14.63;;;13.18;;
2225;SDS011;1119;48.288;8.726;2023-01-28T06:43:30;11.38;;;10.68;;
2225;SDS011;1119;48.288;8.726;2023-01-28T06:45:58;13.77;;;12.85;;
2225;SDS011;1119;48.288;8.726;2023-01-28T06:48:26;16.10;;;13.10;;
2225;SDS011;1119;48.288;8.726;2023-01-28T06:50:55;15.60;;;14.55;;
2225;SDS011;1119;48.288;8.726;2023-01-28T06:53:23;13.60;;;12.63;;
2225;SDS011;1119;48.288;8.726;2023-01-28T06:55:50;12.02;;;11.07;;
2225;SDS011;1119;48.288;8.726;2023-01-28T06:58:17;13.10;;;12.10;;
2225;SDS011;1119;48.288;8.726;2023-01-28T07:00:45;13.43;;;12.57;;
2225;SDS011;1119;48.288;8.726;2023-01-28T07:03:12;12.85;;;12.07;;
2225;SDS011;1119;48.288;8.726;2023-01-28T07:05:39;9.65;;;9.10;;
2225;SDS011;1119;48.288;8.726;2023-01-28T07:08:08;11.45;;;10.50;;
2225;SDS011;1119;48.288;8.726;2023-01-28T07:10:35;13.27;;;12.05;;
2225;SDS011;1119;48.288;8.726;2023-01-28T07:13:03;11.38;;;10.77;;
2225;SDS011;1119;48.288;8.726;2023-01-28T07:15:30;9.20;;;8.80;;
2225;SDS011;1119;48.288;8.726;2023-01-28T07:17:57;10.93;;;10.30;;
2225;SDS011;1119;48.288;8.726;2023-01-28T07:20:25;11.52;;;10.82;;
2225;SDS011;1119;48.288;8.726;2023-01-28T07:22:53;12.50;;;11.65;;
2225;SDS011;1119;48.288;8.726;2023-01-28T07:25:22;12.20;;;11.32;;
2225;SDS011;1119;48.288;8.726;2023-01-28T07:27:50;11.63;;;10.75;;
2225;SDS011;1119;48.288;8.726;2023-01-28T07:30:19;12.00;;;11.13;;
2225;SDS011;1119;48.288;8.726;2023-01-28T07:32:51;12.38;;;11.25;;
2225;SDS011;1119;48.288;8.726;2023-01-28T07:35:19;10.35;;;9.75;;
2225;SDS011;1119;48.288;8.726;2023-01-28T07:37:51;12.63;;;11.45;;
2225;SDS011;1119;48.288;8.726;2023-01-28T07:40:19;11.07;;;10.23;;
2225;SDS011;1119;48.288;8.726;2023-01-28T07:42:48;14.13;;;12.82;;
2225;SDS011;1119;48.288;8.726;2023-01-28T07:45:20;10.65;;;10.05;;
2225;SDS011;1119;48.288;8.726;2023-01-28T07:47:52;9.48;;;8.88;;
2225;SDS011;1119;48.288;8.726;2023-01-28T07:50:21;10.48;;;9.98;;
2225;SDS011;1119;48.288;8.726;2023-01-28T07:52:49;10.00;;;9.27;;
2225;SDS011;1119;48.288;8.726;2023-01-28T07:55:17;12.23;;;9.50;;
2225;SDS011;1119;48.288;8.726;2023-01-28T07:57:49;9.25;;;8.65;;
2225;SDS011;1119;48.288;8.726;2023-01-28T08:00:18;10.75;;;9.93;;
2225;SDS011;1119;48.288;8.726;2023-01-28T08:02:47;13.18;;;11.88;;
2225;SDS011;1119;48.288;8.726;2023-01-28T08:05:15;10.48;;;9.73;;
2225;SDS011;1119;48.288;8.726;2023-01-28T08:07:44;10.40;;;9.60;;
2225;SDS011;1119;48.288;8.726;2023-01-28T08:10:13;11.18;;;10.07;;
2225;SDS011;1119;48.288;8.726;2023-01-28T08:12:50;7.90;;;7.50;;
2225;SDS011;1119;48.288;8.726;2023-01-28T08:15:19;11.02;;;10.13;;
2225;SDS011;1119;48.288;8.726;2023-01-28T08:17:47;13.35;;;12.32;;
2225;SDS011;1119;48.288;8.726;2023-01-28T08:20:14;12.25;;;11.35;;
2225;SDS011;1119;48.288;8.726;2023-01-28T08:22:42;11.35;;;10.27;;
2225;SDS011;1119;48.288;8.726;2023-01-28T08:25:10;8.18;;;7.78;;
2225;SDS011;1119;48.288;8.726;2023-01-28T08:27:38;10.55;;;9.57;;
2225;SDS011;1119;48.288;8.726;2023-01-28T08:30:07;9.07;;;8.43;;
2225;SDS011;1119;48.288;8.726;2023-01-28T08:32:36;9.82;;;9.32;;
2225;SDS011;1119;48.288;8.726;2023-01-28T08:35:04;10.48;;;9.63;;
2225;SDS011;1119;48.288;8.726;2023-01-28T08:37:33;10.00;;;8.98;;
2225;SDS011;1119;48.288;8.726;2023-01-28T08:40:00;8.20;;;7.70;;
2225;SDS011;1119;48.288;8.726;2023-01-28T08:42:28;10.32;;;9.43;;
2225;SDS011;1119;48.288;8.726;2023-01-28T08:44:56;7.38;;;6.97;;
2225;SDS011;1119;48.288;8.726;2023-01-28T08:47:25;8.85;;;8.15;;
2225;SDS011;1119;48.288;8.726;2023-01-28T08:49:52;9.43;;;7.95;;
2225;SDS011;1119;48.288;8.726;2023-01-28T08:52:20;8.55;;;7.95;;
2225;SDS011;1119;48.288;8.726;2023-01-28T08:54:49;6.95;;;6.32;;
2225;SDS011;1119;48.288;8.726;2023-01-28T08:57:16;8.55;;;7.95;;
2225;SDS011;1119;48.288;8.726;2023-01-28T08:59:44;8.40;;;7.75;;
2225;SDS011;1119;48.288;8.726;2023-01-28T09:02:12;8.02;;;7.40;;
2225;SDS011;1119;48.288;8.726;2023-01-28T09:04:41;8.05;;;7.20;;
2225;SDS011;1119;48.288;8.726;2023-01-28T09:07:09;7.50;;;7.20;;
2225;SDS011;1119;48.288;8.726;2023-01-28T09:09:37;6.68;;;6.32;;
2225;SDS011;1119;48.288;8.726;2023-01-28T09:12:04;5.40;;;5.20;;
2225;SDS011;1119;48.288;8.726;2023-01-28T09:14:35;6.80;;;6.40;;
2225;SDS011;1119;48.288;8.726;2023-01-28T09:17:03;4.63;;;4.43;;
2225;SDS011;1119;48.288;8.726;2023-01-28T09:19:30;8.48;;;6.45;;
2225;SDS011;1119;48.288;8.726;2023-01-28T09:21:59;10.10;;;8.90;;
2225;SDS011;1119;48.288;8.726;2023-01-28T09:24:29;10.18;;;9.25;;
2225;SDS011;1119;48.288;8.726;2023-01-28T09:26:57;5.00;;;4.70;;
2225;SDS011;1119;48.288;8.726;2023-01-28T09:29:25;7.82;;;7.13;;
2225;SDS011;1119;48.288;8.726;2023-01-28T09:31:52;4.60;;;4.25;;
2225;SDS011;1119;48.288;8.726;2023-01-28T09:34:20;5.78;;;4.80;;
2225;SDS011;1119;48.288;8.726;2023-01-28T09:36:48;10.13;;;9.23;;
2225;SDS011;1119;48.288;8.726;2023-01-28T09:39:17;6.72;;;6.13;;
2225;SDS011;1119;48.288;8.726;2023-01-28T09:41:46;6.63;;;5.97;;
2225;SDS011;1119;48.288;8.726;2023-01-28T09:44:27;6.85;;;6.35;;
2225;SDS011;1119;48.288;8.726;2023-01-28T09:47:11;7.32;;;6.80;;
2225;SDS011;1119;48.288;8.726;2023-01-28T09:49:48;6.85;;;6.22;;
2225;SDS011;1119;48.288;8.726;2023-01-28T09:52:20;9.75;;;8.90;;
2225;SDS011;1119;48.288;8.726;2023-01-28T09:55:02;10.02;;;7.18;;
2225;SDS011;1119;48.288;8.726;2023-01-28T09:57:35;8.48;;;7.50;;
2225;SDS011;1119;48.288;8.726;2023-01-28T10:00:12;8.20;;;6.97;;
2225;SDS011;1119;48.288;8.726;2023-01-28T10:02:45;5.85;;;5.55;;
2225;SDS011;1119;48.288;8.726;2023-01-28T10:05:30;8.43;;;7.78;;
2225;SDS011;1119;48.288;8.726;2023-01-28T10:08:09;8.30;;;7.57;;
2225;SDS011;1119;48.288;8.726;2023-01-28T10:10:54;7.72;;;7.05;;
2225;SDS011;1119;48.288;8.726;2023-01-28T10:13:30;8.00;;;7.60;;
2225;SDS011;1119;48.288;8.726;2023-01-28T10:16:18;12.52;;;9.57;;
2225;SDS011;1119;48.288;8.726;2023-01-28T10:18:55;6.22;;;5.82;;
2225;SDS011;1119;48.288;8.726;2023-01-28T10:21:30;7.32;;;6.00;;
2225;SDS011;1119;48.288;8.726;2023-01-28T10:24:04;6.43;;;5.93;;
2225;SDS011;1119;48.288;8.726;2023-01-28T10:26:40;8.77;;;8.02;;
2225;SDS011;1119;48.288;8.726;2023-01-28T10:29:10;8.93;;;8.25;;
2225;SDS011;1119;48.288;8.726;2023-01-28T10:31:44;5.50;;;5.10;;
2225;SDS011;1119;48.288;8.726;2023-01-28T10:34:24;7.80;;;7.30;;
2225;SDS011;1119;48.288;8.726;2023-01-28T10:36:51;6.65;;;6.13;;
2225;SDS011;1119;48.288;8.726;2023-01-28T10:39:21;9.32;;;8.50;;
2225;SDS011;1119;48.288;8.726;2023-01-28T10:41:52;9.18;;;8.32;;
2225;SDS011;1119;48.288;8.726;2023-01-28T10:44:20;8.45;;;7.60;;
2225;SDS011;1119;48.288;8.726;2023-01-28T10:46:58;10.75;;;9.52;;
2225;SDS011;1119;48.288;8.726;2023-01-28T10:49:30;6.15;;;5.63;;
2225;SDS011;1119;48.288;8.726;2023-01-28T10:52:09;9.20;;;8.43;;
2225;SDS011;1119;48.288;8.726;2023-01-28T10:54:37;6.82;;;6.30;;
2225;SDS011;1119;48.288;8.726;2023-01-28T10:57:08;8.07;;;6.18;;
2225;SDS011;1119;48.288;8.726;2023-01-28T10:59:39;5.55;;;5.25;;
2225;SDS011;1119;48.288;8.726;2023-01-28T11:02:18;8.73;;;5.10;;
2225;SDS011;1119;48.288;8.726;2023-01-28T11:05:00;4.50;;;4.25;;
2225;SDS011;1119;48.288;8.726;2023-01-28T11:07:33;5.10;;;4.50;;
2225;SDS011;1119;48.288;8.726;2023-01-28T11:10:00;7.43;;;6.60;;
2225;SDS011;1119;48.288;8.726;2023-01-28T11:12:29;5.65;;;5.18;;
2225;SDS011;1119;48.288;8.726;2023-01-28T11:14:57;5.10;;;4.80;;
2225;SDS011;1119;48.288;8.726;2023-01-28T11:17:27;7.45;;;6.65;;
2225;SDS011;1119;48.288;8.726;2023-01-28T11:19:57;11.55;;;6.57;;
2225;SDS011;1119;48.288;8.726;2023-01-28T11:22:34;12.13;;;11.10;;
2225;SDS011;1119;48.288;8.726;2023-01-28T11:25:13;7.32;;;4.70;;
2225;SDS011;1119;48.288;8.726;2023-01-28T11:27:46;5.90;;;5.53;;
2225;SDS011;1119;48.288;8.726;2023-01-28T11:30:19;10.80;;;6.15;;
2225;SDS011;1119;48.288;8.726;2023-01-28T11:33:02;9.77;;;7.82;;
2225;SDS011;1119;48.288;8.726;2023-01-28T11:35:52;7.35;;;6.95;;
2225;SDS011;1119;48.288;8.726;2023-01-28T11:38:22;5.82;;;5.35;;
2225;SDS011;1119;48.288;8.726;2023-01-28T11:40:52;14.65;;;13.30;;
2225;SDS011;1119;48.288;8.726;2023-01-28T11:43:23;12.38;;;10.65;;
2225;SDS011;1119;48.288;8.726;2023-01-28T11:45:55;6.30;;;4.82;;
2225;SDS011;1119;48.288;8.726;2023-01-28T11:48:37;5.65;;;5.25;;
2225;SDS011;1119;48.288;8.726;2023-01-28T11:51:15;7.57;;;6.97;;
2225;SDS011;1119;48.288;8.726;2023-01-28T11:54:01;6.93;;;6.30;;
2225;SDS011;1119;48.288;8.726;2023-01-28T11:56:45;4.78;;;4.57;;
2225;SDS011;1119;48.288;8.726;2023-01-28T11:59:40;8.55;;;6.20;;
2225;SDS011;1119;48.288;8.726;2023-01-28T12:02:26;5.07;;;4.65;;
2225;SDS011;1119;48.288;8.726;2023-01-28T12:05:39;6.40;;;5.93;;
2225;SDS011;1119;48.288;8.726;2023-01-28T12:08:16;7.63;;;7.03;;
2225;SDS011;1119;48.288;8.726;2023-01-28T12:11:03;6.50;;;5.90;;
2225;SDS011;1119;48.288;8.726;2023-01-28T12:14:12;10.00;;;7.50;;
2225;SDS011;1119;48.288;8.726;2023-01-28T12:16:55;5.13;;;4.82;;
2225;SDS011;1119;48.288;8.726;2023-01-28T12:19:37;6.35;;;5.32;;
2225;SDS011;1119;48.288;8.726;2023-01-28T12:22:24;6.00;;;5.50;;
2225;SDS011;1119;48.288;8.726;2023-01-28T12:25:19;5.35;;;4.82;;
2225;SDS011;1119;48.288;8.726;2023-01-28T12:28:07;7.22;;;5.72;;
2225;SDS011;1119;48.288;8.726;2023-01-28T12:30:50;7.55;;;6.95;;
2225;SDS011;1119;48.288;8.726;2023-01-28T12:33:40;6.75;;;6.07;;
2225;SDS011;1119;48.288;8.726;2023-01-28T12:36:28;6.03;;;5.63;;
2225;SDS011;1119;48.288;8.726;2023-01-28T12:39:16;6.80;;;6.15;;
2225;SDS011;1119;48.288;8.726;2023-01-28T12:42:02;5.28;;;4.97;;
2225;SDS011;1119;48.288;8.726;2023-01-28T12:44:36;4.30;;;4.13;;
2225;SDS011;1119;48.288;8.726;2023-01-28T12:47:11;4.65;;;4.30;;
2225;SDS011;1119;48.288;8.726;2023-01-28T12:49:45;7.70;;;6.00;;
2225;SDS011;1119;48.288;8.726;2023-01-28T12:52:17;8.63;;;8.00;;
2225;SDS011;1119;48.288;8.726;2023-01-28T12:54:52;4.80;;;4.50;;
2225;SDS011;1119;48.288;8.726;2023-01-28T12:57:25;8.73;;;6.50;;
2225;SDS011;1119;48.288;8.726;2023-01-28T12:59:56;6.75;;;6.25;;
2225;SDS011;1119;48.288;8.726;2023-01-28T13:02:33;10.48;;;5.47;;
2225;SDS011;1119;48.288;8.726;2023-01-28T13:05:09;8.32;;;7.15;;
2225;SDS011;1119;48.288;8.726;2023-01-28T13:07:41;5.97;;;5.47;;
2225;SDS011;1119;48.288;8.726;2023-01-28T13:10:15;6.43;;;5.95;;
2225;SDS011;1119;48.288;8.726;2023-01-28T13:12:49;6.05;;;5.63;;
2225;SDS011;1119;48.288;8.726;2023-01-28T13:15:17;8.80;;;6.80;;
2225;SDS011;1119;48.288;8.726;2023-01-28T13:17:52;6.88;;;6.43;;
2225;SDS011;1119;48.288;8.726;2023-01-28T13:20:34;8.80;;;6.72;;
2225;SDS011;1119;48.288;8.726;2023-01-28T13:23:05;6.85;;;5.45;;
2225;SDS011;1119;48.288;8.726;2023-01-28T13:25:50;12.45;;;7.22;;
2225;SDS011;1119;48.288;8.726;2023-01-28T13:28:26;6.97;;;4.95;;
2225;SDS011;1119;48.288;8.726;2023-01-28T13:31:00;6.70;;;6.10;;
2225;SDS011;1119;48.288;8.726;2023-01-28T13:33:31;7.85;;;6.93;;
2225;SDS011;1119;48.288;8.726;2023-01-28T13:36:03;9.25;;;7.28;;
2225;SDS011;1119;48.288;8.726;2023-01-28T13:38:58;9.20;;;7.88;;
2225;SDS011;1119;48.288;8.726;2023-01-28T13:41:35;6.40;;;5.80;;
2225;SDS011;1119;48.288;8.726;2023-01-28T13:44:15;8.35;;;7.53;;
2225;SDS011;1119;48.288;8.726;2023-01-28T13:46:45;7.78;;;7.07;;
2225;SDS011;1119;48.288;8.726;2023-01-28T13:49:14;8.88;;;7.18;;
2225;SDS011;1119;48.288;8.726;2023-01-28T13:51:52;6.93;;;5.43;;
2225;SDS011;1119;48.288;8.726;2023-01-28T13:54:25;8.13;;;5.57;;
2225;SDS011;1119;48.288;8.726;2023-01-28T13:57:05;8.35;;;6.97;;
2225;SDS011;1119;48.288;8.726;2023-01-28T14:00:07;5.97;;;5.38;;
2225;SDS011;1119;48.288;8.726;2023-01-28T14:02:57;8.13;;;5.68;;
2225;SDS011;1119;48.288;8.726;2023-01-28T14:05:57;6.32;;;5.15;;
2225;SDS011;1119;48.288;8.726;2023-01-28T14:09:06;10.73;;;7.20;;
2225;SDS011;1119;48.288;8.726;2023-01-28T14:12:05;14.07;;;9.10;;
2225;SDS011;1119;48.288;8.726;2023-01-28T14:18:11;13.73;;;8.80;;
2225;SDS011;1119;48.288;8.726;2023-01-28T14:20:48;9.50;;;8.52;;
2225;SDS011;1119;48.288;8.726;2023-01-28T14:23:17;5.25;;;4.82;;
2225;SDS011;1119;48.288;8.726;2023-01-28T14:25:57;10.88;;;9.05;;
2225;SDS011;1119;48.288;8.726;2023-01-28T14:28:40;7.95;;;7.25;;
2225;SDS011;1119;48.288;8.726;2023-01-28T14:31:17;9.73;;;7.38;;
2225;SDS011;1119;48.288;8.726;2023-01-28T14:33:52;10.45;;;8.07;;
2225;SDS011;1119;48.288;8.726;2023-01-28T14:36:20;6.60;;;5.90;;
2225;SDS011;1119;48.288;8.726;2023-01-28T14:38:47;12.35;;;8.00;;
2225;SDS011;1119;48.288;8.726;2023-01-28T14:41:19;12.85;;;6.22;;
2225;SDS011;1119;48.288;8.726;2023-01-28T14:43:52;5.32;;;4.95;;
2225;SDS011;1119;48.288;8.726;2023-01-28T14:46:25;6.28;;;5.80;;
2225;SDS011;1119;48.288;8.726;2023-01-28T14:49:08;8.18;;;7.43;;
2225;SDS011;1119;48.288;8.726;2023-01-28T14:52:05;11.85;;;7.57;;
2225;SDS011;1119;48.288;8.726;2023-01-28T14:54:55;9.25;;;7.60;;
2225;SDS011;1119;48.288;8.726;2023-01-28T14:57:44;10.48;;;9.43;;
2225;SDS011;1119;48.288;8.726;2023-01-28T15:00:19;9.02;;;7.15;;
2225;SDS011;1119;48.288;8.726;2023-01-28T15:02:49;10.75;;;8.32;;
2225;SDS011;1119;48.288;8.726;2023-01-28T15:05:19;6.80;;;6.15;;
2225;SDS011;1119;48.288;8.726;2023-01-28T15:07:49;7.60;;;6.85;;
2225;SDS011;1119;48.288;8.726;2023-01-28T15:10:18;8.40;;;7.22;;
2225;SDS011;1119;48.288;8.726;2023-01-28T15:12:49;14.43;;;9.05;;
2225;SDS011;1119;48.288;8.726;2023-01-28T15:15:22;8.27;;;7.40;;
2225;SDS011;1119;48.288;8.726;2023-01-28T15:17:55;9.50;;;7.93;;
2225;SDS011;1119;48.288;8.726;2023-01-28T15:20:29;8.32;;;7.07;;
2225;SDS011;1119;48.288;8.726;2023-01-28T15:22:57;9.25;;;8.32;;
2225;SDS011;1119;48.288;8.726;2023-01-28T15:25:27;5.45;;;5.13;;
2225;SDS011;1119;48.288;8.726;2023-01-28T15:27:57;7.60;;;6.97;;
2225;SDS011;1119;48.288;8.726;2023-01-28T15:30:27;5.43;;;5.03;;
2225;SDS011;1119;48.288;8.726;2023-01-28T15:32:57;6.88;;;5.63;;
2225;SDS011;1119;48.288;8.726;2023-01-28T15:35:27;12.38;;;6.78;;
2225;SDS011;1119;48.288;8.726;2023-01-28T15:37:54;10.23;;;8.15;;
2225;SDS011;1119;48.288;8.726;2023-01-28T15:40:22;6.15;;;5.57;;
2225;SDS011;1119;48.288;8.726;2023-01-28T15:42:51;4.10;;;3.90;;
2225;SDS011;1119;48.288;8.726;2023-01-28T15:45:23;8.18;;;7.43;;
2225;SDS011;1119;48.288;8.726;2023-01-28T15:47:52;10.27;;;8.45;;
2225;SDS011;1119;48.288;8.726;2023-01-28T15:50:30;13.73;;;9.18;;